| Date | Time | Temp. (oF) | Dew Point (oF) | Rel. Hum. (%) | Press. (in.) | Wind Dir. | Wind Speed (mph) | Hourly Rainfall (in.) |
|
|---|---|---|---|---|---|---|---|---|---|
| 1 | 02/13 | 00:00 | 24 | 17 | 75 | 29.79 | NW | 2 | 0.00 |
| 2 | 02/12 | 23:00 | 26 | 18 | 74 | 29.80 | NNW | 3 | 0.00 |
| 3 | 02/12 | 22:00 | 20 | 16 | 87 | 29.81 | WNW | 1 | 0.00 |
| 4 | 02/12 | 21:00 | 22 | 18 | 85 | 29.82 | S | 2 | 0.00 |
| 5 | 02/12 | 20:00 | 25 | 18 | 76 | 29.83 | WNW | 1 | 0.00 |
| 6 | 02/12 | 19:00 | 27 | 19 | 72 | 29.84 | S | 1 | 0.00 |
| 7 | 02/12 | 18:00 | 31 | 19 | 62 | 29.83 | WNW | 2 | 0.00 |
| 8 | 02/12 | 17:00 | 35 | 19 | 52 | 29.82 | W | 2 | 0.00 |
| 9 | 02/12 | 16:00 | 37 | 19 | 49 | 29.82 | W | 3 | 0.00 |
| 10 | 02/12 | 15:00 | 36 | 20 | 53 | 29.82 | W | 4 | 0.00 |
| 11 | 02/12 | 14:00 | 34 | 19 | 55 | 29.83 | NNW | 10 | 0.00 |
| 12 | 02/12 | 13:00 | 33 | 19 | 57 | 29.88 | NW | 6 | 0.00 |
| 13 | 02/12 | 12:00 | 31 | 18 | 59 | 29.89 | NNW | 8 | 0.00 |
| 14 | 02/12 | 11:00 | 31 | 19 | 61 | 29.93 | N | 16 | 0.00 |
| 15 | 02/12 | 10:00 | 29 | 18 | 65 | 29.94 | N | 9 | 0.00 |
| 16 | 02/12 | 09:00 | 27 | 17 | 68 | 29.92 | WNW | 4 | 0.00 |
| 17 | 02/12 | 08:00 | 22 | 17 | 81 | 29.91 | SW | 1 | 0.00 |
| 18 | 02/12 | 07:00 | 21 | 15 | 79 | 29.90 | WNW | 1 | 0.00 |
| 19 | 02/12 | 06:00 | 22 | 16 | 78 | 29.89 | NNW | 4 | 0.00 |
| 20 | 02/12 | 05:00 | 22 | 16 | 78 | 29.90 | NNW | 8 | 0.00 |
| 21 | 02/12 | 04:00 | 22 | 15 | 76 | 29.89 | NW | 4 | 0.00 |
| 22 | 02/12 | 03:00 | 23 | 16 | 75 | 29.88 | NNW | 4 | 0.00 |
| 23 | 02/12 | 02:00 | 24 | 16 | 72 | 29.88 | NW | 4 | 0.00 |
| 24 | 02/12 | 01:00 | 25 | 16 | 70 | 29.87 | NW | 7 | 0.00 |